sensor_id;sensor_type;location;lat;lon;timestamp;temperature;humidity
73777;DHT22;62088;50.240;2.696;2024-02-21T00:00:56;9.40;85.10
73777;DHT22;62088;50.240;2.696;2024-02-21T00:03:23;9.40;85.00
73777;DHT22;62088;50.240;2.696;2024-02-21T00:05:51;9.30;85.00
73777;DHT22;62088;50.240;2.696;2024-02-21T00:08:18;9.30;85.00
73777;DHT22;62088;50.240;2.696;2024-02-21T00:10:45;9.40;85.00
73777;DHT22;62088;50.240;2.696;2024-02-21T00:13:12;9.30;85.00
73777;DHT22;62088;50.240;2.696;2024-02-21T00:15:39;9.30;85.00
73777;DHT22;62088;50.240;2.696;2024-02-21T00:18:06;9.30;85.00
73777;DHT22;62088;50.240;2.696;2024-02-21T00:20:34;9.30;85.00
73777;DHT22;62088;50.240;2.696;2024-02-21T00:23:01;9.30;85.10
73777;DHT22;62088;50.240;2.696;2024-02-21T00:25:28;9.30;85.10
73777;DHT22;62088;50.240;2.696;2024-02-21T00:27:55;9.30;85.10
73777;DHT22;62088;50.240;2.696;2024-02-21T00:30:22;9.30;85.10
73777;DHT22;62088;50.240;2.696;2024-02-21T00:32:49;9.20;85.10
73777;DHT22;62088;50.240;2.696;2024-02-21T00:35:16;9.20;85.10
73777;DHT22;62088;50.240;2.696;2024-02-21T00:37:43;9.20;85.10
73777;DHT22;62088;50.240;2.696;2024-02-21T00:40:10;9.20;85.10
73777;DHT22;62088;50.240;2.696;2024-02-21T00:42:37;9.20;85.10
73777;DHT22;62088;50.240;2.696;2024-02-21T00:45:05;9.20;85.10
73777;DHT22;62088;50.240;2.696;2024-02-21T00:47:32;9.20;85.10
73777;DHT22;62088;50.240;2.696;2024-02-21T00:49:59;9.10;85.10
73777;DHT22;62088;50.240;2.696;2024-02-21T00:52:26;9.10;85.10
73777;DHT22;62088;50.240;2.696;2024-02-21T00:54:53;9.10;85.20
73777;DHT22;62088;50.240;2.696;2024-02-21T00:57:21;9.10;85.20
73777;DHT22;62088;50.240;2.696;2024-02-21T00:59:48;9.00;85.20
73777;DHT22;62088;50.240;2.696;2024-02-21T01:02:15;9.00;85.20
73777;DHT22;62088;50.240;2.696;2024-02-21T01:04:42;9.00;85.20
73777;DHT22;62088;50.240;2.696;2024-02-21T01:07:09;8.90;85.20
73777;DHT22;62088;50.240;2.696;2024-02-21T01:09:36;8.90;85.20
73777;DHT22;62088;50.240;2.696;2024-02-21T01:12:04;9.00;85.30
73777;DHT22;62088;50.240;2.696;2024-02-21T01:14:31;9.00;85.30
73777;DHT22;62088;50.240;2.696;2024-02-21T01:16:58;8.90;85.30
73777;DHT22;62088;50.240;2.696;2024-02-21T01:19:25;8.90;85.40
73777;DHT22;62088;50.240;2.696;2024-02-21T01:21:52;8.90;85.40
73777;DHT22;62088;50.240;2.696;2024-02-21T01:24:19;8.90;85.40
73777;DHT22;62088;50.240;2.696;2024-02-21T01:26:46;9.00;85.40
73777;DHT22;62088;50.240;2.696;2024-02-21T01:29:13;8.90;85.50
73777;DHT22;62088;50.240;2.696;2024-02-21T01:31:40;8.90;85.50
73777;DHT22;62088;50.240;2.696;2024-02-21T01:34:08;8.90;85.50
73777;DHT22;62088;50.240;2.696;2024-02-21T01:36:35;8.90;85.50
73777;DHT22;62088;50.240;2.696;2024-02-21T01:39:02;8.90;85.50
73777;DHT22;62088;50.240;2.696;2024-02-21T01:41:32;8.90;85.50
73777;DHT22;62088;50.240;2.696;2024-02-21T01:43:59;8.90;85.50
73777;DHT22;62088;50.240;2.696;2024-02-21T01:46:26;8.90;85.60
73777;DHT22;62088;50.240;2.696;2024-02-21T01:48:59;8.90;85.60
73777;DHT22;62088;50.240;2.696;2024-02-21T01:51:27;8.90;85.60
73777;DHT22;62088;50.240;2.696;2024-02-21T01:53:56;8.90;85.60
73777;DHT22;62088;50.240;2.696;2024-02-21T01:56:24;8.90;85.60
73777;DHT22;62088;50.240;2.696;2024-02-21T01:58:51;8.80;85.60
73777;DHT22;62088;50.240;2.696;2024-02-21T02:01:18;8.80;85.60
73777;DHT22;62088;50.240;2.696;2024-02-21T02:03:48;8.80;85.70
73777;DHT22;62088;50.240;2.696;2024-02-21T02:06:16;8.80;85.70
73777;DHT22;62088;50.240;2.696;2024-02-21T02:08:44;8.80;85.70
73777;DHT22;62088;50.240;2.696;2024-02-21T02:11:13;8.80;85.70
73777;DHT22;62088;50.240;2.696;2024-02-21T02:13:40;8.70;85.70
73777;DHT22;62088;50.240;2.696;2024-02-21T02:16:07;8.70;85.80
73777;DHT22;62088;50.240;2.696;2024-02-21T02:18:35;8.70;85.80
73777;DHT22;62088;50.240;2.696;2024-02-21T02:21:05;8.70;85.80
73777;DHT22;62088;50.240;2.696;2024-02-21T02:23:35;8.70;85.80
73777;DHT22;62088;50.240;2.696;2024-02-21T02:26:02;8.70;85.90
73777;DHT22;62088;50.240;2.696;2024-02-21T02:28:30;8.80;85.90
73777;DHT22;62088;50.240;2.696;2024-02-21T02:30:57;8.70;85.90
73777;DHT22;62088;50.240;2.696;2024-02-21T02:33:24;8.70;86.00
73777;DHT22;62088;50.240;2.696;2024-02-21T02:35:51;8.70;86.00
73777;DHT22;62088;50.240;2.696;2024-02-21T02:38:18;8.70;86.00
73777;DHT22;62088;50.240;2.696;2024-02-21T02:40:45;8.70;86.00
73777;DHT22;62088;50.240;2.696;2024-02-21T02:43:12;8.70;86.10
73777;DHT22;62088;50.240;2.696;2024-02-21T02:45:39;8.70;86.00
73777;DHT22;62088;50.240;2.696;2024-02-21T02:48:07;8.60;86.10
73777;DHT22;62088;50.240;2.696;2024-02-21T02:50:34;8.70;86.10
73777;DHT22;62088;50.240;2.696;2024-02-21T02:53:01;8.60;86.10
73777;DHT22;62088;50.240;2.696;2024-02-21T02:55:28;8.60;86.20
73777;DHT22;62088;50.240;2.696;2024-02-21T02:57:55;8.60;86.20
73777;DHT22;62088;50.240;2.696;2024-02-21T03:00:23;8.60;86.20
73777;DHT22;62088;50.240;2.696;2024-02-21T03:02:50;8.60;86.20
73777;DHT22;62088;50.240;2.696;2024-02-21T03:05:19;8.50;86.30
73777;DHT22;62088;50.240;2.696;2024-02-21T03:07:47;8.50;86.20
73777;DHT22;62088;50.240;2.696;2024-02-21T03:10:16;8.60;86.30
73777;DHT22;62088;50.240;2.696;2024-02-21T03:12:44;8.50;86.30
73777;DHT22;62088;50.240;2.696;2024-02-21T03:15:13;8.50;86.30
73777;DHT22;62088;50.240;2.696;2024-02-21T03:17:40;8.50;86.30
73777;DHT22;62088;50.240;2.696;2024-02-21T03:20:08;8.50;86.30
73777;DHT22;62088;50.240;2.696;2024-02-21T03:22:38;8.50;86.40
73777;DHT22;62088;50.240;2.696;2024-02-21T03:25:06;8.50;86.40
73777;DHT22;62088;50.240;2.696;2024-02-21T03:27:33;8.50;86.40
73777;DHT22;62088;50.240;2.696;2024-02-21T03:30:01;8.50;86.40
73777;DHT22;62088;50.240;2.696;2024-02-21T03:32:28;8.50;86.40
73777;DHT22;62088;50.240;2.696;2024-02-21T03:34:56;8.50;86.40
73777;DHT22;62088;50.240;2.696;2024-02-21T03:37:23;8.50;86.40
73777;DHT22;62088;50.240;2.696;2024-02-21T03:39:51;8.50;86.40
73777;DHT22;62088;50.240;2.696;2024-02-21T03:42:18;8.50;86.40
73777;DHT22;62088;50.240;2.696;2024-02-21T03:44:45;8.50;86.50
73777;DHT22;62088;50.240;2.696;2024-02-21T03:47:12;8.50;86.50
73777;DHT22;62088;50.240;2.696;2024-02-21T03:49:39;8.50;86.50
73777;DHT22;62088;50.240;2.696;2024-02-21T03:52:06;8.50;86.50
73777;DHT22;62088;50.240;2.696;2024-02-21T03:54:34;8.50;86.50
73777;DHT22;62088;50.240;2.696;2024-02-21T03:57:02;8.50;86.50
73777;DHT22;62088;50.240;2.696;2024-02-21T03:59:29;8.50;86.50
73777;DHT22;62088;50.240;2.696;2024-02-21T04:01:56;8.50;86.50
73777;DHT22;62088;50.240;2.696;2024-02-21T04:04:23;8.50;86.50
73777;DHT22;62088;50.240;2.696;2024-02-21T04:06:51;8.50;86.50
73777;DHT22;62088;50.240;2.696;2024-02-21T04:09:18;8.50;86.50
73777;DHT22;62088;50.240;2.696;2024-02-21T04:11:46;8.50;86.50
73777;DHT22;62088;50.240;2.696;2024-02-21T04:14:13;8.50;86.50
73777;DHT22;62088;50.240;2.696;2024-02-21T04:16:40;8.50;86.50
73777;DHT22;62088;50.240;2.696;2024-02-21T04:19:07;8.50;86.50
73777;DHT22;62088;50.240;2.696;2024-02-21T04:21:35;8.50;86.50
73777;DHT22;62088;50.240;2.696;2024-02-21T04:24:03;8.60;86.50
73777;DHT22;62088;50.240;2.696;2024-02-21T04:26:33;8.60;86.50
73777;DHT22;62088;50.240;2.696;2024-02-21T04:29:00;8.60;86.50
73777;DHT22;62088;50.240;2.696;2024-02-21T04:31:28;8.60;86.50
73777;DHT22;62088;50.240;2.696;2024-02-21T04:33:56;8.60;86.50
73777;DHT22;62088;50.240;2.696;2024-02-21T04:36:23;8.60;86.50
73777;DHT22;62088;50.240;2.696;2024-02-21T04:38:50;8.60;86.50
73777;DHT22;62088;50.240;2.696;2024-02-21T04:41:17;8.60;86.50
73777;DHT22;62088;50.240;2.696;2024-02-21T04:43:46;8.60;86.50
73777;DHT22;62088;50.240;2.696;2024-02-21T04:46:14;8.60;86.50
73777;DHT22;62088;50.240;2.696;2024-02-21T04:48:42;8.60;86.50
73777;DHT22;62088;50.240;2.696;2024-02-21T04:51:11;8.60;86.50
73777;DHT22;62088;50.240;2.696;2024-02-21T04:53:39;8.60;86.50
73777;DHT22;62088;50.240;2.696;2024-02-21T04:56:06;8.60;86.50
73777;DHT22;62088;50.240;2.696;2024-02-21T04:58:38;8.60;86.40
73777;DHT22;62088;50.240;2.696;2024-02-21T05:01:05;8.60;86.40
73777;DHT22;62088;50.240;2.696;2024-02-21T05:03:32;8.60;86.50
73777;DHT22;62088;50.240;2.696;2024-02-21T05:06:00;8.60;86.50
73777;DHT22;62088;50.240;2.696;2024-02-21T05:08:27;8.60;86.50
73777;DHT22;62088;50.240;2.696;2024-02-21T05:10:54;8.60;86.50
73777;DHT22;62088;50.240;2.696;2024-02-21T05:13:22;8.60;86.50
73777;DHT22;62088;50.240;2.696;2024-02-21T05:15:49;8.60;86.50
73777;DHT22;62088;50.240;2.696;2024-02-21T05:18:16;8.60;86.40
73777;DHT22;62088;50.240;2.696;2024-02-21T05:20:43;8.60;86.40
73777;DHT22;62088;50.240;2.696;2024-02-21T05:23:10;8.70;86.40
73777;DHT22;62088;50.240;2.696;2024-02-21T05:25:37;8.70;86.40
73777;DHT22;62088;50.240;2.696;2024-02-21T05:28:05;8.70;86.40
73777;DHT22;62088;50.240;2.696;2024-02-21T05:30:33;8.60;86.40
73777;DHT22;62088;50.240;2.696;2024-02-21T05:33:07;8.70;86.40
73777;DHT22;62088;50.240;2.696;2024-02-21T05:35:34;8.70;86.40
73777;DHT22;62088;50.240;2.696;2024-02-21T05:38:02;8.70;86.40
73777;DHT22;62088;50.240;2.696;2024-02-21T05:40:33;8.70;86.40
73777;DHT22;62088;50.240;2.696;2024-02-21T05:43:00;8.70;86.40
73777;DHT22;62088;50.240;2.696;2024-02-21T05:45:27;8.70;86.40
73777;DHT22;62088;50.240;2.696;2024-02-21T05:47:54;8.60;86.40
73777;DHT22;62088;50.240;2.696;2024-02-21T05:50:21;8.60;86.40
73777;DHT22;62088;50.240;2.696;2024-02-21T05:52:54;8.60;86.40
73777;DHT22;62088;50.240;2.696;2024-02-21T05:55:22;8.60;86.40
73777;DHT22;62088;50.240;2.696;2024-02-21T05:57:49;8.60;86.30
73777;DHT22;62088;50.240;2.696;2024-02-21T06:00:17;8.60;86.40
73777;DHT22;62088;50.240;2.696;2024-02-21T06:02:44;8.60;86.30
73777;DHT22;62088;50.240;2.696;2024-02-21T06:05:11;8.60;86.30
73777;DHT22;62088;50.240;2.696;2024-02-21T06:07:38;8.60;86.30
73777;DHT22;62088;50.240;2.696;2024-02-21T06:10:07;8.60;86.30
73777;DHT22;62088;50.240;2.696;2024-02-21T06:12:34;8.60;86.30
73777;DHT22;62088;50.240;2.696;2024-02-21T06:15:01;8.60;86.30
73777;DHT22;62088;50.240;2.696;2024-02-21T06:17:28;8.60;86.30
73777;DHT22;62088;50.240;2.696;2024-02-21T06:19:55;8.60;86.20
73777;DHT22;62088;50.240;2.696;2024-02-21T06:22:22;8.60;86.20
73777;DHT22;62088;50.240;2.696;2024-02-21T06:24:49;8.60;86.20
73777;DHT22;62088;50.240;2.696;2024-02-21T06:27:16;8.60;86.20
73777;DHT22;62088;50.240;2.696;2024-02-21T06:29:44;8.60;86.20
73777;DHT22;62088;50.240;2.696;2024-02-21T06:32:11;8.60;86.20
73777;DHT22;62088;50.240;2.696;2024-02-21T06:34:38;8.60;86.20
73777;DHT22;62088;50.240;2.696;2024-02-21T06:37:05;8.60;86.10
73777;DHT22;62088;50.240;2.696;2024-02-21T06:39:32;8.60;86.10
73777;DHT22;62088;50.240;2.696;2024-02-21T06:41:59;8.60;86.10
73777;DHT22;62088;50.240;2.696;2024-02-21T06:44:29;8.50;86.00
73777;DHT22;62088;50.240;2.696;2024-02-21T06:46:58;8.50;86.00
73777;DHT22;62088;50.240;2.696;2024-02-21T06:49:26;8.50;86.00
73777;DHT22;62088;50.240;2.696;2024-02-21T06:51:53;8.40;86.00
73777;DHT22;62088;50.240;2.696;2024-02-21T06:54:20;8.50;86.10
73777;DHT22;62088;50.240;2.696;2024-02-21T06:56:48;8.40;86.10
73777;DHT22;62088;50.240;2.696;2024-02-21T06:59:15;8.40;86.10
73777;DHT22;62088;50.240;2.696;2024-02-21T07:01:48;8.40;86.10
73777;DHT22;62088;50.240;2.696;2024-02-21T07:04:16;8.40;86.10
73777;DHT22;62088;50.240;2.696;2024-02-21T07:06:43;8.40;86.10
73777;DHT22;62088;50.240;2.696;2024-02-21T07:09:10;8.40;86.10
73777;DHT22;62088;50.240;2.696;2024-02-21T07:11:37;8.40;86.10
73777;DHT22;62088;50.240;2.696;2024-02-21T07:14:04;8.40;86.10
73777;DHT22;62088;50.240;2.696;2024-02-21T07:16:31;8.40;86.10
73777;DHT22;62088;50.240;2.696;2024-02-21T07:19:00;8.40;86.10
73777;DHT22;62088;50.240;2.696;2024-02-21T07:21:27;8.40;86.10
73777;DHT22;62088;50.240;2.696;2024-02-21T07:23:54;8.40;86.10
73777;DHT22;62088;50.240;2.696;2024-02-21T07:26:22;8.50;86.10
73777;DHT22;62088;50.240;2.696;2024-02-21T07:28:49;8.40;86.00
73777;DHT22;62088;50.240;2.696;2024-02-21T07:31:16;8.40;86.00
73777;DHT22;62088;50.240;2.696;2024-02-21T07:33:44;8.40;86.00
73777;DHT22;62088;50.240;2.696;2024-02-21T07:36:11;8.40;86.00
73777;DHT22;62088;50.240;2.696;2024-02-21T07:38:39;8.40;86.00
73777;DHT22;62088;50.240;2.696;2024-02-21T07:41:06;8.40;86.00
73777;DHT22;62088;50.240;2.696;2024-02-21T07:43:33;8.40;85.90
73777;DHT22;62088;50.240;2.696;2024-02-21T07:46:00;8.40;86.00
73777;DHT22;62088;50.240;2.696;2024-02-21T07:48:27;8.40;86.00
73777;DHT22;62088;50.240;2.696;2024-02-21T07:50:58;8.40;86.00
73777;DHT22;62088;50.240;2.696;2024-02-21T07:53:25;8.40;86.00
73777;DHT22;62088;50.240;2.696;2024-02-21T07:55:52;8.40;86.00
73777;DHT22;62088;50.240;2.696;2024-02-21T07:58:19;8.40;86.00
73777;DHT22;62088;50.240;2.696;2024-02-21T08:00:46;8.40;86.00
73777;DHT22;62088;50.240;2.696;2024-02-21T08:03:13;8.40;86.00
73777;DHT22;62088;50.240;2.696;2024-02-21T08:05:42;8.40;86.00
73777;DHT22;62088;50.240;2.696;2024-02-21T08:08:09;8.40;86.00
73777;DHT22;62088;50.240;2.696;2024-02-21T08:10:36;8.40;86.00
73777;DHT22;62088;50.240;2.696;2024-02-21T08:13:03;8.40;86.00
73777;DHT22;62088;50.240;2.696;2024-02-21T08:15:30;8.40;86.00
73777;DHT22;62088;50.240;2.696;2024-02-21T08:17:57;8.50;86.00
73777;DHT22;62088;50.240;2.696;2024-02-21T08:20:28;8.50;86.10
73777;DHT22;62088;50.240;2.696;2024-02-21T08:22:57;8.40;86.00
73777;DHT22;62088;50.240;2.696;2024-02-21T08:25:24;8.50;86.00
73777;DHT22;62088;50.240;2.696;2024-02-21T08:27:54;8.50;86.00
73777;DHT22;62088;50.240;2.696;2024-02-21T08:30:22;8.50;86.00
73777;DHT22;62088;50.240;2.696;2024-02-21T08:32:49;8.50;86.00
73777;DHT22;62088;50.240;2.696;2024-02-21T08:35:16;8.50;86.00
73777;DHT22;62088;50.240;2.696;2024-02-21T08:37:46;8.60;86.00
73777;DHT22;62088;50.240;2.696;2024-02-21T08:40:15;8.60;86.00
73777;DHT22;62088;50.240;2.696;2024-02-21T08:42:46;8.60;86.00
73777;DHT22;62088;50.240;2.696;2024-02-21T08:45:13;8.60;85.90
73777;DHT22;62088;50.240;2.696;2024-02-21T08:47:41;8.60;86.00
73777;DHT22;62088;50.240;2.696;2024-02-21T08:50:09;8.70;85.90
73777;DHT22;62088;50.240;2.696;2024-02-21T08:52:53;8.70;85.90
73777;DHT22;62088;50.240;2.696;2024-02-21T08:55:21;8.70;85.90
73777;DHT22;62088;50.240;2.696;2024-02-21T08:57:48;8.70;85.80
73777;DHT22;62088;50.240;2.696;2024-02-21T09:00:16;8.70;85.80
73777;DHT22;62088;50.240;2.696;2024-02-21T09:02:43;8.70;85.70
73777;DHT22;62088;50.240;2.696;2024-02-21T09:05:11;8.80;85.70
73777;DHT22;62088;50.240;2.696;2024-02-21T09:07:38;8.80;85.70
73777;DHT22;62088;50.240;2.696;2024-02-21T09:10:06;8.80;85.60
73777;DHT22;62088;50.240;2.696;2024-02-21T09:12:33;8.80;85.60
73777;DHT22;62088;50.240;2.696;2024-02-21T09:15:00;8.80;85.60
73777;DHT22;62088;50.240;2.696;2024-02-21T09:17:27;8.80;85.50
73777;DHT22;62088;50.240;2.696;2024-02-21T09:19:56;8.80;85.50
73777;DHT22;62088;50.240;2.696;2024-02-21T09:22:26;8.80;85.30
73777;DHT22;62088;50.240;2.696;2024-02-21T09:24:54;8.80;85.30
73777;DHT22;62088;50.240;2.696;2024-02-21T09:27:21;8.80;85.20
73777;DHT22;62088;50.240;2.696;2024-02-21T09:29:49;8.80;85.10
73777;DHT22;62088;50.240;2.696;2024-02-21T09:32:17;8.80;85.10
73777;DHT22;62088;50.240;2.696;2024-02-21T09:34:45;8.90;85.10
73777;DHT22;62088;50.240;2.696;2024-02-21T09:37:13;8.90;85.00
73777;DHT22;62088;50.240;2.696;2024-02-21T09:39:40;8.90;85.00
73777;DHT22;62088;50.240;2.696;2024-02-21T09:42:07;8.90;85.00
73777;DHT22;62088;50.240;2.696;2024-02-21T09:44:37;8.80;85.00
73777;DHT22;62088;50.240;2.696;2024-02-21T09:47:19;8.90;85.00
73777;DHT22;62088;50.240;2.696;2024-02-21T09:49:49;8.90;85.00
73777;DHT22;62088;50.240;2.696;2024-02-21T09:52:17;8.90;85.00
73777;DHT22;62088;50.240;2.696;2024-02-21T09:54:46;8.90;85.00
73777;DHT22;62088;50.240;2.696;2024-02-21T09:57:15;8.90;85.00
73777;DHT22;62088;50.240;2.696;2024-02-21T09:59:43;8.90;85.00
73777;DHT22;62088;50.240;2.696;2024-02-21T10:02:12;8.90;85.00
73777;DHT22;62088;50.240;2.696;2024-02-21T10:04:40;8.90;85.00
73777;DHT22;62088;50.240;2.696;2024-02-21T10:07:08;8.90;84.90
73777;DHT22;62088;50.240;2.696;2024-02-21T10:09:35;8.90;84.90
73777;DHT22;62088;50.240;2.696;2024-02-21T10:12:10;8.90;85.00
73777;DHT22;62088;50.240;2.696;2024-02-21T10:14:38;8.90;84.90
73777;DHT22;62088;50.240;2.696;2024-02-21T10:17:05;8.90;85.00
73777;DHT22;62088;50.240;2.696;2024-02-21T10:19:38;9.00;84.90
73777;DHT22;62088;50.240;2.696;2024-02-21T10:22:08;9.00;84.90
73777;DHT22;62088;50.240;2.696;2024-02-21T10:24:37;9.00;84.70
73777;DHT22;62088;50.240;2.696;2024-02-21T10:27:06;8.90;84.70
73777;DHT22;62088;50.240;2.696;2024-02-21T10:29:40;9.00;84.70
73777;DHT22;62088;50.240;2.696;2024-02-21T10:32:13;9.00;84.70
73777;DHT22;62088;50.240;2.696;2024-02-21T10:34:41;9.00;84.70
73777;DHT22;62088;50.240;2.696;2024-02-21T10:37:11;9.00;84.70
73777;DHT22;62088;50.240;2.696;2024-02-21T10:39:40;9.00;84.70
73777;DHT22;62088;50.240;2.696;2024-02-21T10:42:10;9.10;84.70
73777;DHT22;62088;50.240;2.696;2024-02-21T10:44:40;9.10;84.70
73777;DHT22;62088;50.240;2.696;2024-02-21T10:47:09;9.10;84.70
73777;DHT22;62088;50.240;2.696;2024-02-21T10:49:39;9.10;84.60
73777;DHT22;62088;50.240;2.696;2024-02-21T10:55:20;9.20;84.50
73777;DHT22;62088;50.240;2.696;2024-02-21T10:57:51;9.20;84.40
73777;DHT22;62088;50.240;2.696;2024-02-21T11:00:19;9.20;84.40
73777;DHT22;62088;50.240;2.696;2024-02-21T11:02:47;9.30;84.30
73777;DHT22;62088;50.240;2.696;2024-02-21T11:05:15;9.30;84.30
73777;DHT22;62088;50.240;2.696;2024-02-21T11:07:43;9.30;84.30
73777;DHT22;62088;50.240;2.696;2024-02-21T11:10:24;9.40;84.20
73777;DHT22;62088;50.240;2.696;2024-02-21T11:13:11;9.40;84.20
73777;DHT22;62088;50.240;2.696;2024-02-21T11:15:38;9.40;84.20
73777;DHT22;62088;50.240;2.696;2024-02-21T11:18:05;9.40;84.20
73777;DHT22;62088;50.240;2.696;2024-02-21T11:20:36;9.40;84.10
73777;DHT22;62088;50.240;2.696;2024-02-21T11:23:04;9.40;84.10
73777;DHT22;62088;50.240;2.696;2024-02-21T11:25:31;9.50;84.10
73777;DHT22;62088;50.240;2.696;2024-02-21T11:28:02;9.50;83.90
73777;DHT22;62088;50.240;2.696;2024-02-21T11:30:35;9.50;83.90
73777;DHT22;62088;50.240;2.696;2024-02-21T11:33:03;9.50;83.60
73777;DHT22;62088;50.240;2.696;2024-02-21T11:35:34;9.50;83.40
73777;DHT22;62088;50.240;2.696;2024-02-21T11:40:41;9.60;83.40
73777;DHT22;62088;50.240;2.696;2024-02-21T11:43:08;9.70;83.40
73777;DHT22;62088;50.240;2.696;2024-02-21T11:45:35;9.70;83.30
73777;DHT22;62088;50.240;2.696;2024-02-21T11:48:04;9.70;83.30
73777;DHT22;62088;50.240;2.696;2024-02-21T11:50:33;9.70;83.20
73777;DHT22;62088;50.240;2.696;2024-02-21T11:53:00;9.80;83.00
73777;DHT22;62088;50.240;2.696;2024-02-21T11:55:28;9.80;83.00
73777;DHT22;62088;50.240;2.696;2024-02-21T11:57:55;9.80;83.00
73777;DHT22;62088;50.240;2.696;2024-02-21T12:00:23;9.80;82.90
73777;DHT22;62088;50.240;2.696;2024-02-21T12:02:53;9.80;82.80
73777;DHT22;62088;50.240;2.696;2024-02-21T12:05:22;9.90;82.90
73777;DHT22;62088;50.240;2.696;2024-02-21T12:07:49;9.80;82.90
73777;DHT22;62088;50.240;2.696;2024-02-21T12:10:16;9.90;83.00
73777;DHT22;62088;50.240;2.696;2024-02-21T12:12:44;9.90;83.10
73777;DHT22;62088;50.240;2.696;2024-02-21T12:15:11;9.90;83.30
73777;DHT22;62088;50.240;2.696;2024-02-21T12:17:39;9.90;83.40
73777;DHT22;62088;50.240;2.696;2024-02-21T12:20:07;9.90;83.50
73777;DHT22;62088;50.240;2.696;2024-02-21T12:22:43;9.90;83.50
73777;DHT22;62088;50.240;2.696;2024-02-21T12:25:17;9.90;83.70
73777;DHT22;62088;50.240;2.696;2024-02-21T12:27:49;9.90;83.80
73777;DHT22;62088;50.240;2.696;2024-02-21T12:30:16;9.90;83.90
73777;DHT22;62088;50.240;2.696;2024-02-21T12:32:44;9.80;84.00
73777;DHT22;62088;50.240;2.696;2024-02-21T12:35:11;9.80;84.10
73777;DHT22;62088;50.240;2.696;2024-02-21T12:37:38;9.80;84.10
73777;DHT22;62088;50.240;2.696;2024-02-21T12:40:07;9.80;84.20
73777;DHT22;62088;50.240;2.696;2024-02-21T12:42:34;9.80;84.30
73777;DHT22;62088;50.240;2.696;2024-02-21T12:45:04;9.70;84.50
73777;DHT22;62088;50.240;2.696;2024-02-21T12:47:32;9.70;84.60
73777;DHT22;62088;50.240;2.696;2024-02-21T12:49:59;9.70;84.70
73777;DHT22;62088;50.240;2.696;2024-02-21T12:52:26;9.70;84.90
73777;DHT22;62088;50.240;2.696;2024-02-21T12:54:53;9.70;85.00
73777;DHT22;62088;50.240;2.696;2024-02-21T12:57:23;9.70;85.10
73777;DHT22;62088;50.240;2.696;2024-02-21T12:59:54;9.70;85.20
73777;DHT22;62088;50.240;2.696;2024-02-21T13:02:21;9.70;85.30
73777;DHT22;62088;50.240;2.696;2024-02-21T13:04:49;9.70;85.30
73777;DHT22;62088;50.240;2.696;2024-02-21T13:07:16;9.70;85.60
73777;DHT22;62088;50.240;2.696;2024-02-21T13:09:43;9.70;85.60
73777;DHT22;62088;50.240;2.696;2024-02-21T13:12:10;9.70;85.70
73777;DHT22;62088;50.240;2.696;2024-02-21T13:14:38;9.70;85.70
73777;DHT22;62088;50.240;2.696;2024-02-21T13:17:06;9.70;85.60
73777;DHT22;62088;50.240;2.696;2024-02-21T13:19:34;9.70;85.60
73777;DHT22;62088;50.240;2.696;2024-02-21T13:22:01;9.70;85.60
73777;DHT22;62088;50.240;2.696;2024-02-21T13:24:30;9.70;85.70
73777;DHT22;62088;50.240;2.696;2024-02-21T13:26:58;9.70;85.70
73777;DHT22;62088;50.240;2.696;2024-02-21T13:29:25;9.70;85.90
73777;DHT22;62088;50.240;2.696;2024-02-21T13:31:52;9.70;85.90
73777;DHT22;62088;50.240;2.696;2024-02-21T13:34:19;9.60;85.90
73777;DHT22;62088;50.240;2.696;2024-02-21T13:36:46;9.60;86.00
73777;DHT22;62088;50.240;2.696;2024-02-21T13:39:13;9.60;86.00
73777;DHT22;62088;50.240;2.696;2024-02-21T13:41:42;9.70;86.10
73777;DHT22;62088;50.240;2.696;2024-02-21T13:44:10;9.60;86.10
73777;DHT22;62088;50.240;2.696;2024-02-21T13:46:39;9.60;86.30
73777;DHT22;62088;50.240;2.696;2024-02-21T13:49:07;9.60;86.30
73777;DHT22;62088;50.240;2.696;2024-02-21T13:51:35;9.60;86.50
73777;DHT22;62088;50.240;2.696;2024-02-21T13:54:05;9.60;86.60
73777;DHT22;62088;50.240;2.696;2024-02-21T13:56:36;9.60;86.60
73777;DHT22;62088;50.240;2.696;2024-02-21T13:59:03;9.60;86.60
73777;DHT22;62088;50.240;2.696;2024-02-21T14:01:31;9.60;86.60
73777;DHT22;62088;50.240;2.696;2024-02-21T14:03:59;9.60;86.70
73777;DHT22;62088;50.240;2.696;2024-02-21T14:06:26;9.60;86.70
73777;DHT22;62088;50.240;2.696;2024-02-21T14:08:54;9.60;86.80
73777;DHT22;62088;50.240;2.696;2024-02-21T14:11:21;9.60;86.80
73777;DHT22;62088;50.240;2.696;2024-02-21T14:13:49;9.70;86.90
73777;DHT22;62088;50.240;2.696;2024-02-21T14:16:16;9.60;87.00
73777;DHT22;62088;50.240;2.696;2024-02-21T14:18:43;9.60;87.00
73777;DHT22;62088;50.240;2.696;2024-02-21T14:21:13;9.60;87.10
73777;DHT22;62088;50.240;2.696;2024-02-21T14:23:40;9.60;87.10
73777;DHT22;62088;50.240;2.696;2024-02-21T14:26:07;9.60;87.20
73777;DHT22;62088;50.240;2.696;2024-02-21T14:28:35;9.60;87.20
73777;DHT22;62088;50.240;2.696;2024-02-21T14:31:03;9.60;87.20
73777;DHT22;62088;50.240;2.696;2024-02-21T14:33:32;9.60;87.20
73777;DHT22;62088;50.240;2.696;2024-02-21T14:36:00;9.60;87.20
73777;DHT22;62088;50.240;2.696;2024-02-21T14:38:27;9.60;87.30
73777;DHT22;62088;50.240;2.696;2024-02-21T14:40:54;9.60;87.30
73777;DHT22;62088;50.240;2.696;2024-02-21T14:43:22;9.60;87.40
73777;DHT22;62088;50.240;2.696;2024-02-21T14:45:49;9.60;87.40
73777;DHT22;62088;50.240;2.696;2024-02-21T14:48:17;9.60;87.40
73777;DHT22;62088;50.240;2.696;2024-02-21T14:50:44;9.60;87.50
73777;DHT22;62088;50.240;2.696;2024-02-21T14:53:11;9.60;87.50
73777;DHT22;62088;50.240;2.696;2024-02-21T14:55:38;9.60;87.50
73777;DHT22;62088;50.240;2.696;2024-02-21T14:58:06;9.60;87.50
73777;DHT22;62088;50.240;2.696;2024-02-21T15:00:37;9.60;87.60
73777;DHT22;62088;50.240;2.696;2024-02-21T15:03:04;9.60;87.60
73777;DHT22;62088;50.240;2.696;2024-02-21T15:05:31;9.60;87.60
73777;DHT22;62088;50.240;2.696;2024-02-21T15:08:00;9.60;87.60
73777;DHT22;62088;50.240;2.696;2024-02-21T15:10:28;9.70;87.70
73777;DHT22;62088;50.240;2.696;2024-02-21T15:12:55;9.70;87.70
73777;DHT22;62088;50.240;2.696;2024-02-21T15:15:22;9.70;87.70
73777;DHT22;62088;50.240;2.696;2024-02-21T15:17:49;9.70;87.70
73777;DHT22;62088;50.240;2.696;2024-02-21T15:20:17;9.60;87.60
73777;DHT22;62088;50.240;2.696;2024-02-21T15:22:45;9.70;87.70
73777;DHT22;62088;50.240;2.696;2024-02-21T15:25:12;9.70;87.70
73777;DHT22;62088;50.240;2.696;2024-02-21T15:27:44;9.70;87.70
73777;DHT22;62088;50.240;2.696;2024-02-21T15:30:12;9.70;87.70
73777;DHT22;62088;50.240;2.696;2024-02-21T15:32:40;9.70;87.80
73777;DHT22;62088;50.240;2.696;2024-02-21T15:35:11;9.70;87.80
73777;DHT22;62088;50.240;2.696;2024-02-21T15:37:39;9.70;87.80
73777;DHT22;62088;50.240;2.696;2024-02-21T15:40:06;9.70;87.80
73777;DHT22;62088;50.240;2.696;2024-02-21T15:42:35;9.70;87.80
73777;DHT22;62088;50.240;2.696;2024-02-21T15:45:02;9.70;87.80
73777;DHT22;62088;50.240;2.696;2024-02-21T15:47:34;9.70;87.90
73777;DHT22;62088;50.240;2.696;2024-02-21T15:50:01;9.70;87.90
73777;DHT22;62088;50.240;2.696;2024-02-21T15:52:30;9.70;87.90
73777;DHT22;62088;50.240;2.696;2024-02-21T15:54:57;9.70;87.90